sensor_id;sensor_type;location;lat;lon;timestamp;pressure;altitude;pressure_sealevel;temperature;humidity
69796;BME280;57073;45.650;9.612;2024-03-29T00:02:01;98477.59;;;9.05;60.94
69796;BME280;57073;45.650;9.612;2024-03-29T00:07:02;98481.41;;;9.09;60.71
69796;BME280;57073;45.650;9.612;2024-03-29T00:12:02;98480.03;;;9.06;60.51
69796;BME280;57073;45.650;9.612;2024-03-29T00:17:03;98495.47;;;8.94;60.23
69796;BME280;57073;45.650;9.612;2024-03-29T00:22:04;98507.75;;;9.07;60.52
69796;BME280;57073;45.650;9.612;2024-03-29T00:27:05;98511.28;;;9.07;59.62
69796;BME280;57073;45.650;9.612;2024-03-29T00:32:05;98510.94;;;9.04;59.86
69796;BME280;57073;45.650;9.612;2024-03-29T00:37:06;98520.78;;;8.98;59.26
69796;BME280;57073;45.650;9.612;2024-03-29T00:42:06;98529.81;;;8.75;59.11
69796;BME280;57073;45.650;9.612;2024-03-29T00:47:09;98534.19;;;8.64;59.26
69796;BME280;57073;45.650;9.612;2024-03-29T00:52:10;98534.53;;;8.68;59.80
69796;BME280;57073;45.650;9.612;2024-03-29T00:57:10;98539.66;;;8.69;59.98
69796;BME280;57073;45.650;9.612;2024-03-29T01:02:13;98539.47;;;8.59;60.45
69796;BME280;57073;45.650;9.612;2024-03-29T01:07:13;98543.88;;;8.65;60.47
69796;BME280;57073;45.650;9.612;2024-03-29T01:12:16;98546.66;;;8.70;59.61
69796;BME280;57073;45.650;9.612;2024-03-29T01:17:16;98534.19;;;8.64;59.40
69796;BME280;57073;45.650;9.612;2024-03-29T01:22:18;98540.56;;;8.75;58.80
69796;BME280;57073;45.650;9.612;2024-03-29T01:27:18;98551.94;;;8.65;59.01
69796;BME280;57073;45.650;9.612;2024-03-29T01:32:18;98536.31;;;8.62;59.23
69796;BME280;57073;45.650;9.612;2024-03-29T01:37:19;98542.75;;;8.61;59.12
69796;BME280;57073;45.650;9.612;2024-03-29T01:42:19;98545.03;;;8.69;58.93
69796;BME280;57073;45.650;9.612;2024-03-29T01:47:20;98551.56;;;8.74;58.99
69796;BME280;57073;45.650;9.612;2024-03-29T01:52:21;98557.25;;;8.77;58.85
69796;BME280;57073;45.650;9.612;2024-03-29T01:57:21;98567.94;;;8.89;58.50
69796;BME280;57073;45.650;9.612;2024-03-29T02:02:23;98562.44;;;8.96;58.57
69796;BME280;57073;45.650;9.612;2024-03-29T02:07:23;98544.97;;;8.98;58.29
69796;BME280;57073;45.650;9.612;2024-03-29T02:12:24;98552.25;;;8.98;58.52
69796;BME280;57073;45.650;9.612;2024-03-29T02:17:24;98566.50;;;9.15;58.71
69796;BME280;57073;45.650;9.612;2024-03-29T02:22:25;98565.13;;;9.13;58.83
69796;BME280;57073;45.650;9.612;2024-03-29T02:27:27;98575.25;;;9.22;60.03
69796;BME280;57073;45.650;9.612;2024-03-29T02:32:27;98570.25;;;9.31;59.45
69796;BME280;57073;45.650;9.612;2024-03-29T02:37:28;98577.44;;;9.25;60.14
69796;BME280;57073;45.650;9.612;2024-03-29T02:42:28;98573.84;;;9.37;59.12
69796;BME280;57073;45.650;9.612;2024-03-29T02:47:28;98593.16;;;9.17;61.08
69796;BME280;57073;45.650;9.612;2024-03-29T02:52:29;98583.13;;;9.29;59.96
69796;BME280;57073;45.650;9.612;2024-03-29T02:57:29;98576.22;;;8.99;59.45
69796;BME280;57073;45.650;9.612;2024-03-29T03:02:30;98582.56;;;9.10;59.78
69796;BME280;57073;45.650;9.612;2024-03-29T03:07:30;98617.94;;;9.19;60.65
69796;BME280;57073;45.650;9.612;2024-03-29T03:12:49;98616.41;;;9.23;61.00
69796;BME280;57073;45.650;9.612;2024-03-29T03:17:50;98621.03;;;9.11;60.33
69796;BME280;57073;45.650;9.612;2024-03-29T03:22:53;98632.94;;;9.15;59.02
69796;BME280;57073;45.650;9.612;2024-03-29T03:27:53;98614.50;;;9.06;60.63
69796;BME280;57073;45.650;9.612;2024-03-29T03:32:54;98633.19;;;9.13;59.46
69796;BME280;57073;45.650;9.612;2024-03-29T03:37:54;98644.25;;;9.00;57.90
69796;BME280;57073;45.650;9.612;2024-03-29T03:42:56;98642.28;;;8.95;58.09
69796;BME280;57073;45.650;9.612;2024-03-29T03:47:56;98627.88;;;9.01;58.95
69796;BME280;57073;45.650;9.612;2024-03-29T03:52:57;98626.91;;;9.07;58.84
69796;BME280;57073;45.650;9.612;2024-03-29T03:57:57;98641.59;;;9.17;58.94
69796;BME280;57073;45.650;9.612;2024-03-29T04:02:58;98656.97;;;9.21;59.25
69796;BME280;57073;45.650;9.612;2024-03-29T04:07:58;98669.81;;;9.31;60.51
69796;BME280;57073;45.650;9.612;2024-03-29T04:13:00;98658.78;;;9.33;60.09
69796;BME280;57073;45.650;9.612;2024-03-29T04:18:00;98651.28;;;9.18;60.42
69796;BME280;57073;45.650;9.612;2024-03-29T04:23:04;98694.06;;;9.19;61.78
69796;BME280;57073;45.650;9.612;2024-03-29T04:28:04;98686.19;;;9.30;60.81
69796;BME280;57073;45.650;9.612;2024-03-29T04:33:05;98687.13;;;9.06;59.42
69796;BME280;57073;45.650;9.612;2024-03-29T04:38:05;98676.94;;;9.08;60.04
69796;BME280;57073;45.650;9.612;2024-03-29T04:43:05;98674.66;;;8.88;61.57
69796;BME280;57073;45.650;9.612;2024-03-29T04:48:06;98690.75;;;8.72;63.47
69796;BME280;57073;45.650;9.612;2024-03-29T04:53:07;98689.56;;;8.91;64.21
69796;BME280;57073;45.650;9.612;2024-03-29T04:58:08;98675.44;;;8.72;65.39
69796;BME280;57073;45.650;9.612;2024-03-29T05:03:08;98705.06;;;8.48;64.90
69796;BME280;57073;45.650;9.612;2024-03-29T05:08:09;98730.47;;;8.17;67.55
69796;BME280;57073;45.650;9.612;2024-03-29T05:13:09;98738.16;;;7.78;70.39
69796;BME280;57073;45.650;9.612;2024-03-29T05:18:09;98731.38;;;7.52;72.71
69796;BME280;57073;45.650;9.612;2024-03-29T05:23:10;98729.91;;;7.91;71.58
69796;BME280;57073;45.650;9.612;2024-03-29T05:28:14;98728.13;;;8.09;71.61
69796;BME280;57073;45.650;9.612;2024-03-29T05:33:14;98751.00;;;8.23;71.70
69796;BME280;57073;45.650;9.612;2024-03-29T05:38:15;98737.34;;;8.13;72.25
69796;BME280;57073;45.650;9.612;2024-03-29T05:43:16;98762.31;;;8.49;70.81
69796;BME280;57073;45.650;9.612;2024-03-29T05:48:16;98756.63;;;8.34;70.97
69796;BME280;57073;45.650;9.612;2024-03-29T05:53:18;98752.19;;;8.16;71.54
69796;BME280;57073;45.650;9.612;2024-03-29T05:58:18;98772.84;;;8.27;70.56
69796;BME280;57073;45.650;9.612;2024-03-29T06:03:20;98783.72;;;8.08;72.06
69796;BME280;57073;45.650;9.612;2024-03-29T06:08:21;98783.13;;;7.94;72.43
69796;BME280;57073;45.650;9.612;2024-03-29T06:13:23;98787.34;;;8.14;71.95
69796;BME280;57073;45.650;9.612;2024-03-29T06:18:49;98784.97;;;7.82;72.72
69796;BME280;57073;45.650;9.612;2024-03-29T06:23:50;98783.00;;;8.25;71.73
69796;BME280;57073;45.650;9.612;2024-03-29T06:28:50;98785.22;;;7.92;73.55
69796;BME280;57073;45.650;9.612;2024-03-29T06:33:50;98794.78;;;8.00;72.68
69796;BME280;57073;45.650;9.612;2024-03-29T06:38:52;98793.81;;;7.71;73.97
69796;BME280;57073;45.650;9.612;2024-03-29T06:43:52;98793.56;;;7.61;74.96
69796;BME280;57073;45.650;9.612;2024-03-29T06:48:52;98784.91;;;7.59;75.24
69796;BME280;57073;45.650;9.612;2024-03-29T06:53:53;98790.75;;;7.55;75.69
69796;BME280;57073;45.650;9.612;2024-03-29T06:58:53;98802.06;;;7.58;76.06
69796;BME280;57073;45.650;9.612;2024-03-29T07:03:53;98781.47;;;7.70;75.01
69796;BME280;57073;45.650;9.612;2024-03-29T07:08:54;98785.28;;;7.62;75.33
69796;BME280;57073;45.650;9.612;2024-03-29T07:13:54;98807.03;;;7.42;76.47
69796;BME280;57073;45.650;9.612;2024-03-29T07:18:55;98829.25;;;7.61;75.70
69796;BME280;57073;45.650;9.612;2024-03-29T07:23:55;98834.44;;;7.74;75.75
69796;BME280;57073;45.650;9.612;2024-03-29T07:28:55;98836.31;;;7.74;76.04
69796;BME280;57073;45.650;9.612;2024-03-29T07:33:56;98837.50;;;7.90;75.24
69796;BME280;57073;45.650;9.612;2024-03-29T07:38:57;98841.16;;;8.07;74.98
69796;BME280;57073;45.650;9.612;2024-03-29T07:43:58;98858.41;;;8.00;75.05
69796;BME280;57073;45.650;9.612;2024-03-29T07:49:05;98871.47;;;7.96;75.10
69796;BME280;57073;45.650;9.612;2024-03-29T07:54:06;98861.25;;;8.17;74.75
69796;BME280;57073;45.650;9.612;2024-03-29T07:59:06;98873.53;;;8.24;75.30
69796;BME280;57073;45.650;9.612;2024-03-29T08:04:07;98878.53;;;8.32;75.33
69796;BME280;57073;45.650;9.612;2024-03-29T08:09:07;98869.78;;;8.49;74.43
69796;BME280;57073;45.650;9.612;2024-03-29T08:14:08;98867.59;;;8.46;74.71
69796;BME280;57073;45.650;9.612;2024-03-29T08:19:09;98876.09;;;8.43;75.39
69796;BME280;57073;45.650;9.612;2024-03-29T08:24:09;98872.94;;;8.58;75.49
69796;BME280;57073;45.650;9.612;2024-03-29T08:29:10;98866.88;;;8.62;75.12
69796;BME280;57073;45.650;9.612;2024-03-29T08:34:10;98870.38;;;8.75;75.29
69796;BME280;57073;45.650;9.612;2024-03-29T08:39:13;98870.47;;;8.80;75.52
69796;BME280;57073;45.650;9.612;2024-03-29T08:44:13;98882.44;;;8.84;74.75
69796;BME280;57073;45.650;9.612;2024-03-29T08:49:14;98884.63;;;8.87;73.83
69796;BME280;57073;45.650;9.612;2024-03-29T08:54:14;98883.50;;;8.95;74.96
69796;BME280;57073;45.650;9.612;2024-03-29T08:59:14;98872.59;;;8.89;76.01
69796;BME280;57073;45.650;9.612;2024-03-29T09:04:16;98862.78;;;8.60;76.30
69796;BME280;57073;45.650;9.612;2024-03-29T09:09:16;98865.72;;;8.94;75.87
69796;BME280;57073;45.650;9.612;2024-03-29T09:14:17;98865.94;;;8.92;75.95
69796;BME280;57073;45.650;9.612;2024-03-29T09:19:17;98861.97;;;8.95;76.80
69796;BME280;57073;45.650;9.612;2024-03-29T09:24:17;98864.19;;;8.98;76.19
69796;BME280;57073;45.650;9.612;2024-03-29T09:29:18;98859.94;;;9.02;76.73
69796;BME280;57073;45.650;9.612;2024-03-29T09:34:20;98870.59;;;8.85;78.27
69796;BME280;57073;45.650;9.612;2024-03-29T09:39:20;98859.53;;;8.69;78.95
69796;BME280;57073;45.650;9.612;2024-03-29T09:44:22;98860.56;;;9.04;77.01
69796;BME280;57073;45.650;9.612;2024-03-29T09:49:24;98858.00;;;8.97;78.48
69796;BME280;57073;45.650;9.612;2024-03-29T09:54:28;98874.75;;;9.28;78.16
69796;BME280;57073;45.650;9.612;2024-03-29T09:59:29;98870.28;;;9.45;76.68
69796;BME280;57073;45.650;9.612;2024-03-29T10:04:29;98854.88;;;9.58;77.40
69796;BME280;57073;45.650;9.612;2024-03-29T10:09:31;98863.72;;;9.70;77.43
69796;BME280;57073;45.650;9.612;2024-03-29T10:14:43;98875.81;;;10.01;76.77
69796;BME280;57073;45.650;9.612;2024-03-29T10:19:44;98881.91;;;10.26;75.99
69796;BME280;57073;45.650;9.612;2024-03-29T10:24:45;98880.56;;;10.40;75.33
69796;BME280;57073;45.650;9.612;2024-03-29T10:29:46;98874.72;;;10.65;74.70
69796;BME280;57073;45.650;9.612;2024-03-29T10:34:53;98870.00;;;10.94;74.41
69796;BME280;57073;45.650;9.612;2024-03-29T10:39:53;98884.94;;;11.02;74.30
69796;BME280;57073;45.650;9.612;2024-03-29T10:44:55;98876.59;;;11.04;74.44
69796;BME280;57073;45.650;9.612;2024-03-29T10:49:56;98870.09;;;11.22;73.01
69796;BME280;57073;45.650;9.612;2024-03-29T10:54:58;98866.31;;;11.23;72.36
69796;BME280;57073;45.650;9.612;2024-03-29T11:00:11;98870.75;;;11.34;72.33
69796;BME280;57073;45.650;9.612;2024-03-29T11:05:15;98874.91;;;11.19;69.37
69796;BME280;57073;45.650;9.612;2024-03-29T11:10:33;98872.00;;;11.48;69.28
69796;BME280;57073;45.650;9.612;2024-03-29T11:15:37;98880.38;;;11.47;68.61
69796;BME280;57073;45.650;9.612;2024-03-29T11:20:38;98869.75;;;11.62;68.51
69796;BME280;57073;45.650;9.612;2024-03-29T11:25:57;98879.56;;;12.01;68.51
69796;BME280;57073;45.650;9.612;2024-03-29T11:31:02;98869.78;;;12.22;67.06
69796;BME280;57073;45.650;9.612;2024-03-29T11:41:19;98857.38;;;12.63;66.90
69796;BME280;57073;45.650;9.612;2024-03-29T11:46:23;98853.34;;;12.71;66.58
69796;BME280;57073;45.650;9.612;2024-03-29T11:51:23;98840.75;;;12.49;66.26
69796;BME280;57073;45.650;9.612;2024-03-29T11:56:24;98842.09;;;12.89;66.72
69796;BME280;57073;45.650;9.612;2024-03-29T12:01:28;98827.38;;;12.70;65.59
69796;BME280;57073;45.650;9.612;2024-03-29T12:06:29;98823.75;;;13.02;66.28
69796;BME280;57073;45.650;9.612;2024-03-29T12:11:31;98822.38;;;12.94;67.14
69796;BME280;57073;45.650;9.612;2024-03-29T12:16:42;98822.91;;;12.91;65.93
69796;BME280;57073;45.650;9.612;2024-03-29T12:21:43;98824.34;;;13.14;65.04
69796;BME280;57073;45.650;9.612;2024-03-29T12:26:43;98810.22;;;12.97;64.37
69796;BME280;57073;45.650;9.612;2024-03-29T12:31:44;98812.16;;;13.12;64.04
69796;BME280;57073;45.650;9.612;2024-03-29T12:36:46;98817.13;;;13.40;63.99
69796;BME280;57073;45.650;9.612;2024-03-29T12:41:47;98821.19;;;13.38;63.84
69796;BME280;57073;45.650;9.612;2024-03-29T12:46:48;98812.56;;;13.61;62.88
69796;BME280;57073;45.650;9.612;2024-03-29T12:51:48;98808.25;;;13.71;62.44
69796;BME280;57073;45.650;9.612;2024-03-29T12:56:49;98809.38;;;13.95;62.41
69796;BME280;57073;45.650;9.612;2024-03-29T13:01:49;98801.78;;;14.08;61.21
69796;BME280;57073;45.650;9.612;2024-03-29T13:06:50;98803.94;;;14.05;60.72
69796;BME280;57073;45.650;9.612;2024-03-29T13:11:50;98805.81;;;14.41;61.25
69796;BME280;57073;45.650;9.612;2024-03-29T13:16:50;98793.63;;;14.23;59.93
69796;BME280;57073;45.650;9.612;2024-03-29T13:21:51;98798.44;;;14.62;59.56
69796;BME280;57073;45.650;9.612;2024-03-29T13:26:51;98809.06;;;14.28;59.22
69796;BME280;57073;45.650;9.612;2024-03-29T13:31:52;98813.63;;;14.68;58.91
69796;BME280;57073;45.650;9.612;2024-03-29T13:36:52;98808.72;;;14.75;59.68
69796;BME280;57073;45.650;9.612;2024-03-29T13:41:52;98802.25;;;14.56;59.94
69796;BME280;57073;45.650;9.612;2024-03-29T13:46:53;98794.69;;;14.48;60.35
69796;BME280;57073;45.650;9.612;2024-03-29T13:51:54;98784.66;;;14.38;61.38
69796;BME280;57073;45.650;9.612;2024-03-29T13:56:54;98787.63;;;14.52;61.56
69796;BME280;57073;45.650;9.612;2024-03-29T14:01:54;98771.88;;;14.49;61.20
69796;BME280;57073;45.650;9.612;2024-03-29T14:06:55;98762.63;;;14.55;61.61
69796;BME280;57073;45.650;9.612;2024-03-29T14:11:56;98772.84;;;14.83;61.87
69796;BME280;57073;45.650;9.612;2024-03-29T14:16:56;98762.00;;;14.94;62.03
69796;BME280;57073;45.650;9.612;2024-03-29T14:21:57;98765.25;;;14.91;62.85
69796;BME280;57073;45.650;9.612;2024-03-29T14:26:58;98753.22;;;15.07;62.06
69796;BME280;57073;45.650;9.612;2024-03-29T14:31:58;98752.69;;;15.10;61.71
69796;BME280;57073;45.650;9.612;2024-03-29T14:36:59;98753.78;;;15.09;61.78
69796;BME280;57073;45.650;9.612;2024-03-29T14:41:59;98745.97;;;14.92;62.65
69796;BME280;57073;45.650;9.612;2024-03-29T14:47:05;98750.56;;;15.02;62.38
69796;BME280;57073;45.650;9.612;2024-03-29T14:52:06;98761.44;;;14.97;62.91
69796;BME280;57073;45.650;9.612;2024-03-29T14:57:06;98748.72;;;14.87;62.92
69796;BME280;57073;45.650;9.612;2024-03-29T15:02:07;98749.28;;;14.79;63.40
69796;BME280;57073;45.650;9.612;2024-03-29T15:07:07;98733.78;;;14.85;62.84
69796;BME280;57073;45.650;9.612;2024-03-29T15:12:08;98736.50;;;14.90;63.34
69796;BME280;57073;45.650;9.612;2024-03-29T15:17:11;98746.00;;;14.82;63.58
69796;BME280;57073;45.650;9.612;2024-03-29T15:22:11;98744.13;;;14.88;63.09
69796;BME280;57073;45.650;9.612;2024-03-29T15:27:12;98743.09;;;14.58;64.54
69796;BME280;57073;45.650;9.612;2024-03-29T15:32:36;98742.59;;;14.46;64.46
69796;BME280;57073;45.650;9.612;2024-03-29T15:37:37;98738.44;;;14.69;63.84
69796;BME280;57073;45.650;9.612;2024-03-29T15:42:37;98735.81;;;14.53;64.42
69796;BME280;57073;45.650;9.612;2024-03-29T15:47:40;98738.22;;;14.60;63.83
69796;BME280;57073;45.650;9.612;2024-03-29T15:52:40;98733.03;;;14.63;63.99
69796;BME280;57073;45.650;9.612;2024-03-29T15:57:42;98735.97;;;14.77;63.44
69796;BME280;57073;45.650;9.612;2024-03-29T16:02:46;98725.16;;;14.72;64.24
69796;BME280;57073;45.650;9.612;2024-03-29T16:07:48;98725.94;;;14.78;63.97
69796;BME280;57073;45.650;9.612;2024-03-29T16:12:48;98722.66;;;14.81;64.22
69796;BME280;57073;45.650;9.612;2024-03-29T16:17:48;98717.63;;;14.54;64.20
69796;BME280;57073;45.650;9.612;2024-03-29T16:22:49;98701.38;;;14.43;63.61
69796;BME280;57073;45.650;9.612;2024-03-29T16:27:49;98714.94;;;14.38;63.56
69796;BME280;57073;45.650;9.612;2024-03-29T16:32:50;98717.69;;;14.33;64.06
69796;BME280;57073;45.650;9.612;2024-03-29T16:37:50;98738.81;;;14.41;64.05
69796;BME280;57073;45.650;9.612;2024-03-29T16:42:51;98729.09;;;14.30;64.55
69796;BME280;57073;45.650;9.612;2024-03-29T16:47:51;98735.09;;;14.01;65.55
69796;BME280;57073;45.650;9.612;2024-03-29T16:52:51;98732.44;;;13.86;65.88
69796;BME280;57073;45.650;9.612;2024-03-29T16:57:52;98735.09;;;13.76;66.39
69796;BME280;57073;45.650;9.612;2024-03-29T17:02:52;98730.47;;;13.76;66.46
69796;BME280;57073;45.650;9.612;2024-03-29T17:07:56;98738.88;;;13.80;66.89
69796;BME280;57073;45.650;9.612;2024-03-29T17:12:56;98726.97;;;13.81;67.11
69796;BME280;57073;45.650;9.612;2024-03-29T17:17:56;98725.34;;;13.54;67.90
69796;BME280;57073;45.650;9.612;2024-03-29T17:22:57;98716.41;;;13.54;67.84
69796;BME280;57073;45.650;9.612;2024-03-29T17:27:57;98721.50;;;13.29;69.64
69796;BME280;57073;45.650;9.612;2024-03-29T17:32:57;98719.91;;;13.44;69.22
69796;BME280;57073;45.650;9.612;2024-03-29T17:37:58;98736.97;;;13.49;69.54
69796;BME280;57073;45.650;9.612;2024-03-29T17:42:58;98746.44;;;13.42;69.98
69796;BME280;57073;45.650;9.612;2024-03-29T17:47:59;98749.97;;;13.32;69.97
69796;BME280;57073;45.650;9.612;2024-03-29T17:52:59;98758.84;;;13.22;70.03
69796;BME280;57073;45.650;9.612;2024-03-29T17:57:59;98766.66;;;13.03;70.89
69796;BME280;57073;45.650;9.612;2024-03-29T18:03:00;98769.06;;;12.95;71.25
69796;BME280;57073;45.650;9.612;2024-03-29T18:08:00;98763.91;;;12.93;70.77
69796;BME280;57073;45.650;9.612;2024-03-29T18:13:00;98769.03;;;12.84;71.06
69796;BME280;57073;45.650;9.612;2024-03-29T18:18:01;98766.53;;;12.72;71.35
69796;BME280;57073;45.650;9.612;2024-03-29T18:23:01;98769.44;;;12.66;70.93
69796;BME280;57073;45.650;9.612;2024-03-29T18:28:03;98765.13;;;12.65;71.11
69796;BME280;57073;45.650;9.612;2024-03-29T18:33:03;98768.09;;;12.63;70.73
69796;BME280;57073;45.650;9.612;2024-03-29T18:38:04;98763.44;;;12.53;70.49
69796;BME280;57073;45.650;9.612;2024-03-29T18:43:04;98768.91;;;12.64;70.45
69796;BME280;57073;45.650;9.612;2024-03-29T18:48:05;98771.03;;;12.57;70.79
69796;BME280;57073;45.650;9.612;2024-03-29T18:53:06;98768.84;;;12.53;70.72
69796;BME280;57073;45.650;9.612;2024-03-29T18:58:06;98762.63;;;12.53;70.74
69796;BME280;57073;45.650;9.612;2024-03-29T19:03:07;98766.69;;;12.50;71.17
69796;BME280;57073;45.650;9.612;2024-03-29T19:08:07;98768.38;;;12.62;70.68
69796;BME280;57073;45.650;9.612;2024-03-29T19:13:08;98771.34;;;12.65;70.53
69796;BME280;57073;45.650;9.612;2024-03-29T19:18:08;98767.59;;;12.66;70.61
69796;BME280;57073;45.650;9.612;2024-03-29T19:23:12;98770.28;;;12.71;70.01
69796;BME280;57073;45.650;9.612;2024-03-29T19:28:12;98761.03;;;12.57;70.36
69796;BME280;57073;45.650;9.612;2024-03-29T19:33:13;98776.47;;;12.62;70.61
69796;BME280;57073;45.650;9.612;2024-03-29T19:38:13;98762.97;;;12.67;69.91
69796;BME280;57073;45.650;9.612;2024-03-29T19:43:13;98755.94;;;12.66;70.30
69796;BME280;57073;45.650;9.612;2024-03-29T19:48:14;98746.22;;;12.65;70.58
69796;BME280;57073;45.650;9.612;2024-03-29T19:53:14;98746.22;;;12.65;70.70
69796;BME280;57073;45.650;9.612;2024-03-29T19:58:15;98753.19;;;12.61;70.60
69796;BME280;57073;45.650;9.612;2024-03-29T20:03:15;98743.41;;;12.49;71.51
69796;BME280;57073;45.650;9.612;2024-03-29T20:08:16;98749.84;;;12.38;71.82
69796;BME280;57073;45.650;9.612;2024-03-29T20:13:16;98739.81;;;12.28;71.89
69796;BME280;57073;45.650;9.612;2024-03-29T20:18:16;98734.41;;;12.28;72.68
69796;BME280;57073;45.650;9.612;2024-03-29T20:23:17;98741.13;;;12.26;72.26
69796;BME280;57073;45.650;9.612;2024-03-29T20:28:18;98729.22;;;12.22;72.64
69796;BME280;57073;45.650;9.612;2024-03-29T20:33:18;98728.66;;;12.20;72.95
69796;BME280;57073;45.650;9.612;2024-03-29T20:38:19;98726.84;;;12.30;72.57
69796;BME280;57073;45.650;9.612;2024-03-29T20:43:20;98732.00;;;12.37;72.11
69796;BME280;57073;45.650;9.612;2024-03-29T20:48:20;98723.84;;;12.27;72.06
69796;BME280;57073;45.650;9.612;2024-03-29T20:53:20;98716.31;;;12.34;71.99
69796;BME280;57073;45.650;9.612;2024-03-29T20:58:21;98718.19;;;12.28;72.46
69796;BME280;57073;45.650;9.612;2024-03-29T21:03:21;98714.84;;;12.16;73.23
69796;BME280;57073;45.650;9.612;2024-03-29T21:08:40;98717.31;;;12.23;72.78
69796;BME280;57073;45.650;9.612;2024-03-29T21:13:40;98720.84;;;12.23;73.00
69796;BME280;57073;45.650;9.612;2024-03-29T21:18:41;98717.81;;;12.14;72.89
69796;BME280;57073;45.650;9.612;2024-03-29T21:23:41;98726.97;;;12.08;73.21
69796;BME280;57073;45.650;9.612;2024-03-29T21:28:42;98729.69;;;12.13;72.92
69796;BME280;57073;45.650;9.612;2024-03-29T21:33:43;98731.13;;;12.26;72.44
69796;BME280;57073;45.650;9.612;2024-03-29T21:38:43;98724.88;;;12.16;73.46
69796;BME280;57073;45.650;9.612;2024-03-29T21:43:43;98741.09;;;12.16;73.55
69796;BME280;57073;45.650;9.612;2024-03-29T21:48:44;98728.06;;;12.12;73.50
69796;BME280;57073;45.650;9.612;2024-03-29T21:53:44;98739.06;;;12.01;74.21
69796;BME280;57073;45.650;9.612;2024-03-29T21:58:44;98737.16;;;11.96;74.81
69796;BME280;57073;45.650;9.612;2024-03-29T22:03:46;98744.19;;;11.97;74.78
69796;BME280;57073;45.650;9.612;2024-03-29T22:08:46;98745.84;;;12.03;73.99
69796;BME280;57073;45.650;9.612;2024-03-29T22:13:47;98754.25;;;12.07;74.17
69796;BME280;57073;45.650;9.612;2024-03-29T22:18:47;98748.84;;;12.07;73.75
69796;BME280;57073;45.650;9.612;2024-03-29T22:23:48;98749.03;;;11.95;74.26
69796;BME280;57073;45.650;9.612;2024-03-29T22:28:48;98750.31;;;11.87;74.54
69796;BME280;57073;45.650;9.612;2024-03-29T22:33:49;98748.94;;;11.80;74.78
69796;BME280;57073;45.650;9.612;2024-03-29T22:38:50;98737.28;;;11.79;74.85
69796;BME280;57073;45.650;9.612;2024-03-29T22:43:50;98739.28;;;11.89;74.65
69796;BME280;57073;45.650;9.612;2024-03-29T22:48:51;98727.06;;;11.81;74.81
69796;BME280;57073;45.650;9.612;2024-03-29T22:53:51;98722.72;;;11.80;75.08
69796;BME280;57073;45.650;9.612;2024-03-29T22:58:51;98724.13;;;11.88;74.58
69796;BME280;57073;45.650;9.612;2024-03-29T23:03:52;98724.66;;;11.85;73.82
69796;BME280;57073;45.650;9.612;2024-03-29T23:08:52;98721.38;;;11.83;73.73
69796;BME280;57073;45.650;9.612;2024-03-29T23:13:52;98711.63;;;11.76;73.86
69796;BME280;57073;45.650;9.612;2024-03-29T23:18:54;98704.56;;;11.70;74.38
69796;BME280;57073;45.650;9.612;2024-03-29T23:23:54;98705.81;;;11.63;74.35
69796;BME280;57073;45.650;9.612;2024-03-29T23:28:54;98715.31;;;11.65;74.53
69796;BME280;57073;45.650;9.612;2024-03-29T23:33:55;98706.91;;;11.62;74.69
69796;BME280;57073;45.650;9.612;2024-03-29T23:38:55;98712.75;;;11.53;75.53
69796;BME280;57073;45.650;9.612;2024-03-29T23:43:56;98709.88;;;11.60;75.08
69796;BME280;57073;45.650;9.612;2024-03-29T23:48:57;98705.81;;;11.63;75.42
69796;BME280;57073;45.650;9.612;2024-03-29T23:53:57;98711.31;;;11.73;75.07
69796;BME280;57073;45.650;9.612;2024-03-29T23:58:58;98700.72;;;11.66;75.22
